Terminal Aerodrome Forecast
Issued by NWS

Home | Current Version | Previous Version | Text Only | Print | Product List | Glossary On
Versions: 1 2 3 4 5 6 7 8 9 10 11 12 13
000
FTUS45 KPSR 210520
TAFSDL
TAF
KSDL 210520Z 2106/2206 09007KT P6SM SCT090 BKN120 BKN200
     FM211100 VRB05KT P6SM SCT090 SCT120 SCT200
     FM212000 25005KT P6SM SCT130=

USA.gov is the U.S. government's official web portal to all federal, state and local government web resources and services.